createdAt,value
2022-08-07T00:02:40.797Z,8.27
2022-08-07T00:06:20.516Z,8.40
2022-08-07T00:10:27.238Z,7.55
2022-08-07T00:14:11.916Z,8.02
2022-08-07T00:17:55.015Z,6.22
2022-08-07T00:21:56.148Z,6.28
2022-08-07T00:25:41.586Z,6.68
2022-08-07T00:29:31.306Z,7.18
2022-08-07T00:33:14.278Z,5.50
2022-08-07T00:36:57.218Z,6.00
2022-08-07T00:40:40.792Z,5.93
2022-08-07T00:44:22.876Z,6.10
2022-08-07T00:48:11.030Z,5.20
2022-08-07T00:51:57.071Z,4.82
2022-08-07T00:56:02.053Z,4.38
2022-08-07T00:59:42.327Z,4.82
2022-08-07T01:03:54.851Z,5.03
2022-08-07T01:07:29.351Z,5.53
2022-08-07T01:12:26.539Z,4.03
2022-08-07T01:15:17.633Z,4.75
2022-08-07T01:18:59.825Z,4.30
2022-08-07T01:22:47.032Z,5.30
2022-08-07T01:26:40.565Z,4.57
2022-08-07T01:30:27.018Z,3.38
2022-08-07T01:37:51.668Z,4.05
2022-08-07T01:41:34.079Z,3.53
2022-08-07T01:45:22.736Z,3.38
2022-08-07T01:49:05.119Z,5.43
2022-08-07T01:52:49.578Z,3.70
2022-08-07T01:56:56.480Z,3.78
2022-08-07T02:00:48.844Z,4.82
2022-08-07T02:04:57.290Z,3.55
2022-08-07T02:12:30.969Z,2.58
2022-08-07T02:16:14.584Z,3.90
2022-08-07T02:20:07.444Z,3.15
2022-08-07T02:24:00.241Z,3.83
2022-08-07T02:27:51.930Z,3.15
2022-08-07T02:31:36.312Z,3.28
2022-08-07T02:35:20.338Z,2.60
2022-08-07T02:39:43.266Z,4.13
2022-08-07T02:43:27.821Z,3.22
2022-08-07T02:47:19.939Z,2.80
2022-08-07T02:51:29.005Z,3.15
2022-08-07T02:55:28.537Z,3.05
2022-08-07T02:59:27.712Z,3.17
2022-08-07T03:03:13.573Z,4.03
2022-08-07T03:07:10.485Z,2.75
2022-08-07T03:10:53.463Z,2.80
2022-08-07T03:14:37.918Z,3.28
2022-08-07T03:18:22.617Z,4.88
2022-08-07T03:22:18.777Z,3.30
2022-08-07T03:26:03.073Z,3.83
2022-08-07T03:29:51.223Z,4.32
2022-08-07T03:33:40.200Z,2.30
2022-08-07T03:37:27.645Z,3.75
2022-08-07T03:41:10.945Z,3.67
2022-08-07T03:44:58.040Z,3.75
2022-08-07T03:49:02.060Z,4.45
2022-08-07T03:52:45.061Z,3.47
2022-08-07T03:56:33.338Z,3.65
2022-08-07T04:00:17.684Z,3.05
2022-08-07T04:07:48.311Z,2.92
2022-08-07T04:12:25.933Z,3.75
2022-08-07T04:15:34.685Z,3.35
2022-08-07T04:19:17.405Z,2.58
2022-08-07T04:23:06.218Z,1.27
2022-08-07T04:26:48.704Z,1.88
2022-08-07T04:30:39.527Z,2.17
2022-08-07T04:34:32.914Z,1.95
2022-08-07T04:38:15.742Z,2.08
2022-08-07T04:41:57.737Z,3.30
2022-08-07T04:46:01.522Z,1.52
2022-08-07T04:50:18.176Z,1.58
2022-08-07T04:54:15.397Z,3.13
2022-08-07T04:58:31.566Z,1.80
2022-08-07T05:02:30.190Z,1.73
2022-08-07T05:06:19.937Z,2.20
2022-08-07T05:10:11.838Z,1.88
2022-08-07T05:14:54.448Z,1.85
2022-08-07T05:18:30.915Z,1.60
2022-08-07T05:22:26.564Z,3.70
2022-08-07T05:26:23.642Z,2.03
2022-08-07T05:30:06.961Z,1.95
2022-08-07T05:34:04.859Z,4.15
2022-08-07T05:37:48.471Z,2.17
2022-08-07T05:42:01.512Z,4.70
2022-08-07T05:45:48.492Z,2.70
2022-08-07T05:49:40.374Z,3.75
2022-08-07T05:54:12.678Z,4.00
2022-08-07T05:57:30.074Z,2.58
2022-08-07T06:01:18.007Z,4.07
2022-08-07T06:05:06.030Z,3.05
2022-08-07T06:08:51.562Z,2.47
2022-08-07T06:12:34.839Z,3.22
2022-08-07T06:16:16.898Z,2.97
2022-08-07T06:20:04.500Z,3.00
2022-08-07T06:24:45.570Z,1.60
2022-08-07T06:28:01.453Z,2.33
2022-08-07T06:31:49.931Z,2.00
2022-08-07T06:35:45.685Z,2.97
2022-08-07T06:40:17.766Z,3.58
2022-08-07T06:43:46.465Z,1.40
2022-08-07T06:47:47.971Z,1.92
2022-08-07T06:51:43.433Z,1.40
2022-08-07T06:55:53.745Z,1.55
2022-08-07T07:00:13.059Z,1.55
2022-08-07T07:03:49.967Z,2.17
2022-08-07T07:07:59.183Z,0.90
2022-08-07T07:12:08.494Z,1.10
2022-08-07T07:15:51.746Z,1.40
2022-08-07T07:19:57.554Z,0.90
2022-08-07T07:24:06.389Z,2.97
2022-08-07T07:28:07.725Z,1.30
2022-08-07T07:32:09.479Z,0.80
2022-08-07T07:36:05.048Z,1.27
2022-08-07T07:39:54.857Z,2.30
2022-08-07T07:44:13.946Z,0.90
2022-08-07T07:47:52.421Z,0.73
2022-08-07T07:51:57.421Z,1.00
2022-08-07T07:55:45.710Z,1.13
2022-08-07T07:59:52.267Z,1.45
2022-08-07T08:04:10.435Z,0.80
2022-08-07T08:07:59.583Z,1.20
2022-08-07T08:11:59.794Z,2.38
2022-08-07T08:15:59.159Z,4.28
2022-08-07T08:20:18.752Z,1.60
2022-08-07T08:24:05.273Z,1.17
2022-08-07T08:27:56.530Z,1.02
2022-08-07T08:32:17.551Z,1.77
2022-08-07T08:35:50.963Z,1.35
2022-08-07T08:39:39.273Z,5.05
2022-08-07T08:44:07.890Z,1.33
2022-08-07T08:47:58.765Z,2.92
2022-08-07T08:52:19.005Z,1.85
2022-08-07T08:56:09.190Z,1.70
2022-08-07T08:59:53.870Z,3.33
2022-08-07T09:04:15.877Z,2.10
2022-08-07T09:08:04.162Z,1.40
2022-08-07T09:12:02.821Z,2.83
2022-08-07T09:16:22.086Z,0.88
2022-08-07T09:20:35.520Z,1.35
2022-08-07T09:24:58.852Z,2.53
2022-08-07T09:30:01.527Z,1.00
2022-08-07T09:32:57.468Z,2.33
2022-08-07T09:37:14.145Z,1.27
2022-08-07T09:41:43.372Z,1.30
2022-08-07T09:47:24.425Z,1.52
2022-08-07T09:50:30.085Z,1.80
2022-08-07T09:54:45.498Z,1.13
2022-08-07T09:58:55.414Z,3.30
2022-08-07T10:02:55.277Z,2.47
2022-08-07T10:06:54.007Z,1.90
2022-08-07T10:11:17.111Z,1.90
2022-08-07T10:15:26.638Z,2.53
2022-08-07T10:19:11.385Z,2.78
2022-08-07T10:24:05.440Z,1.80
2022-08-07T10:27:45.833Z,1.98
2022-08-07T10:31:53.594Z,1.40
2022-08-07T10:36:10.991Z,1.33
2022-08-07T10:40:12.646Z,2.30
2022-08-07T10:44:28.739Z,0.77
2022-08-07T10:48:34.656Z,0.90
2022-08-07T10:52:34.084Z,1.73
2022-08-07T10:56:42.648Z,1.50
2022-08-07T11:00:39.484Z,1.73
2022-08-07T11:04:37.773Z,0.88
2022-08-07T11:08:39.253Z,1.17
2022-08-07T11:12:35.413Z,1.23
2022-08-07T11:16:45.882Z,0.82
2022-08-07T11:20:48.603Z,1.55
2022-08-07T11:24:48.570Z,2.28
2022-08-07T11:28:58.562Z,0.90
2022-08-07T11:32:53.542Z,0.65
2022-08-07T11:40:49.450Z,1.27
2022-08-07T11:45:00.082Z,1.00
2022-08-07T11:49:50.346Z,1.67
2022-08-07T11:53:37.031Z,1.83
2022-08-07T11:58:03.956Z,0.30
2022-08-07T12:02:30.348Z,2.30
2022-08-07T12:06:50.276Z,0.80
2022-08-07T12:10:47.482Z,1.05
2022-08-07T12:15:00.470Z,0.73
2022-08-07T12:19:01.937Z,2.15
2022-08-07T12:23:09.114Z,0.93
2022-08-07T12:26:58.986Z,3.72
2022-08-07T12:30:46.934Z,1.63
2022-08-07T12:34:33.049Z,0.90
2022-08-07T12:38:29.401Z,0.50
2022-08-07T12:42:27.168Z,1.98
2022-08-07T12:46:32.760Z,2.00
2022-08-07T12:50:40.229Z,0.90
2022-08-07T12:54:42.906Z,1.92
2022-08-07T12:58:40.391Z,0.60
2022-08-07T13:02:37.781Z,2.00
2022-08-07T13:06:29.984Z,1.45
2022-08-07T13:10:51.499Z,2.85
2022-08-07T13:14:59.433Z,0.55
2022-08-07T13:19:11.370Z,1.08
2022-08-07T13:23:09.798Z,0.60
2022-08-07T13:27:33.292Z,0.77
2022-08-07T13:31:54.893Z,0.82
2022-08-07T13:36:00.212Z,0.70
2022-08-07T13:43:52.783Z,0.88
2022-08-07T13:48:05.294Z,0.60
2022-08-07T13:52:04.896Z,0.90
2022-08-07T13:55:46.911Z,0.75
2022-08-07T13:59:39.830Z,0.82
2022-08-07T14:03:28.903Z,1.70
2022-08-07T14:07:33.560Z,0.60
2022-08-07T14:11:19.140Z,0.93
2022-08-07T14:15:07.306Z,0.43
2022-08-07T14:18:57.041Z,0.68
2022-08-07T14:22:42.766Z,0.68
2022-08-07T14:26:40.610Z,0.52
2022-08-07T14:30:34.018Z,0.70
2022-08-07T14:34:21.963Z,0.45
2022-08-07T14:38:26.889Z,1.30
2022-08-07T14:42:20.120Z,0.63
2022-08-07T14:46:06.015Z,0.93
2022-08-07T14:49:56.818Z,1.38
2022-08-07T14:54:03.591Z,1.33
2022-08-07T14:57:58.167Z,1.13
2022-08-07T15:01:42.294Z,2.58
2022-08-07T15:05:26.834Z,0.93
2022-08-07T15:09:58.049Z,1.10
2022-08-07T15:13:19.774Z,0.70
2022-08-07T15:17:11.427Z,0.85
2022-08-07T15:20:55.746Z,1.40
2022-08-07T15:25:13.907Z,2.17
2022-08-07T15:28:53.541Z,0.55
2022-08-07T15:32:50.794Z,1.65
2022-08-07T15:37:04.097Z,0.88
2022-08-07T15:44:52.468Z,0.75
2022-08-07T15:49:03.777Z,0.43
2022-08-07T15:52:52.312Z,2.05
2022-08-07T15:56:41.552Z,0.55
2022-08-07T16:00:33.421Z,0.60
2022-08-07T16:04:17.713Z,0.90
2022-08-07T16:08:32.327Z,0.52
2022-08-07T16:12:33.759Z,0.77
2022-08-07T16:16:47.924Z,1.63
2022-08-07T16:20:42.371Z,0.65
2022-08-07T16:24:34.355Z,0.80
2022-08-07T16:30:07.633Z,0.93
2022-08-07T16:32:54.368Z,1.23
2022-08-07T16:37:02.841Z,0.85
2022-08-07T16:41:15.265Z,0.30
2022-08-07T16:46:21.266Z,0.70
2022-08-07T16:50:29.309Z,1.23
2022-08-07T16:54:06.031Z,0.95
2022-08-07T16:58:02.958Z,0.57
2022-08-07T17:01:59.354Z,0.70
2022-08-07T17:06:30.138Z,0.88
2022-08-07T17:10:32.274Z,0.30
2022-08-07T17:14:22.351Z,0.47
2022-08-07T17:18:35.736Z,0.32
2022-08-07T17:22:36.335Z,0.82
2022-08-07T17:26:51.721Z,0.88
2022-08-07T17:30:58.659Z,0.50
2022-08-07T17:35:40.504Z,1.67
2022-08-07T17:39:10.170Z,1.23
2022-08-07T17:43:19.019Z,0.95
2022-08-07T17:47:42.871Z,0.40
2022-08-07T17:51:59.631Z,0.93
2022-08-07T17:56:07.082Z,2.10
2022-08-07T17:59:55.034Z,1.00
2022-08-07T18:04:41.580Z,0.75
2022-08-07T18:08:54.482Z,1.38
2022-08-07T18:13:01.393Z,1.33
2022-08-07T18:16:59.657Z,2.45
2022-08-07T18:21:03.778Z,1.00
2022-08-07T18:25:19.300Z,1.20
2022-08-07T18:30:07.392Z,1.02
2022-08-07T18:34:06.483Z,1.67
2022-08-07T18:38:55.946Z,0.80
2022-08-07T18:42:53.709Z,1.02
2022-08-07T18:47:00.457Z,1.05
2022-08-07T18:50:48.561Z,1.17
2022-08-07T18:54:38.284Z,0.88
2022-08-07T18:58:35.853Z,1.90
2022-08-07T19:02:39.504Z,1.05
2022-08-07T19:06:58.024Z,0.75
2022-08-07T19:10:51.533Z,2.22
2022-08-07T19:14:58.214Z,3.08
2022-08-07T19:19:27.893Z,3.33
2022-08-07T19:23:58.373Z,7.25
2022-08-07T19:29:02.825Z,3.85
2022-08-07T19:32:10.807Z,3.90
2022-08-07T19:35:56.908Z,4.30
2022-08-07T19:39:57.868Z,2.20
2022-08-07T19:43:49.964Z,1.80
2022-08-07T19:47:41.819Z,1.35
2022-08-07T19:51:51.376Z,1.10
2022-08-07T19:55:57.645Z,1.33
2022-08-07T19:59:41.169Z,6.63
2022-08-07T20:03:35.752Z,1.73
2022-08-07T20:07:46.433Z,1.35
2022-08-07T20:12:00.928Z,0.85
2022-08-07T20:15:37.143Z,1.00
2022-08-07T20:19:22.954Z,1.05
2022-08-07T20:23:23.434Z,1.47
2022-08-07T20:27:13.069Z,3.25
2022-08-07T20:31:21.657Z,1.05
2022-08-07T20:35:33.315Z,1.25
2022-08-07T20:39:31.109Z,2.88
2022-08-07T20:43:26.968Z,0.95
2022-08-07T20:47:12.324Z,1.55
2022-08-07T20:51:02.141Z,2.23
2022-08-07T20:54:53.663Z,1.67
2022-08-07T20:58:38.792Z,1.80
2022-08-07T21:02:54.585Z,2.45
2022-08-07T21:06:39.062Z,3.07
2022-08-07T21:10:31.822Z,3.65
2022-08-07T21:14:38.474Z,1.33
2022-08-07T21:18:36.071Z,3.35
2022-08-07T21:22:28.364Z,1.88
2022-08-07T21:26:20.683Z,2.45
2022-08-07T21:30:08.698Z,2.15
2022-08-07T21:34:12.991Z,2.13
2022-08-07T21:42:42.362Z,2.65
2022-08-07T21:46:38.704Z,2.00
2022-08-07T21:50:32.050Z,2.33
2022-08-07T21:54:25.834Z,2.63
2022-08-07T21:58:32.301Z,2.22
2022-08-07T22:02:34.274Z,1.42
2022-08-07T22:06:30.272Z,2.92
2022-08-07T22:14:05.216Z,1.70
2022-08-07T22:18:04.854Z,1.73
2022-08-07T22:22:04.345Z,3.35
2022-08-07T22:25:55.818Z,2.88
2022-08-07T22:30:04.763Z,4.27
2022-08-07T22:34:05.239Z,3.45
2022-08-07T22:38:09.765Z,2.47
2022-08-07T22:42:19.679Z,2.13
2022-08-07T22:47:02.565Z,4.95
2022-08-07T22:50:42.636Z,1.88
2022-08-07T22:54:48.900Z,2.58
2022-08-07T22:58:42.223Z,1.80
2022-08-07T23:02:30.689Z,2.20
2022-08-07T23:06:34.458Z,2.63
2022-08-07T23:10:42.063Z,2.72
2022-08-07T23:14:47.464Z,3.42
2022-08-07T23:19:11.297Z,3.00
2022-08-07T23:22:58.787Z,2.25
2022-08-07T23:27:06.144Z,2.25
2022-08-07T23:32:49.170Z,2.20
2022-08-07T23:35:37.346Z,2.30
2022-08-07T23:39:55.623Z,1.65
2022-08-07T23:43:57.940Z,1.52
2022-08-07T23:48:02.050Z,1.92
2022-08-07T23:53:01.318Z,2.10
2022-08-07T23:55:52.892Z,1.90
